Time;durP1;ratioP1;P1;durP2;ratioP2;P2;SDS_P1;SDS_P2;PMS_P1;PMS_P2;Temp;Humidity;BMP_temperature;BMP_pressure;BME280_temperature;BME280_humidity;BME280_pressure;Samples;Min_cycle;Max_cycle;Signal;HPM_P1;HPM_P2
2021/12/21 00:00:47;;;;;;;19.43;10.80;;;;;;;-3.44;75.23;101688.56;8525403;33;20963;-77
2021/12/21 00:05:52;;;;;;;20.57;13.33;;;;;;;-3.55;75.34;101680.72;8534981;33;20219;-77
2021/12/21 00:10:58;;;;;;;19.20;11.63;;;;;;;-3.61;75.12;101678.09;8542372;33;20445;-77
2021/12/21 00:16:11;;;;;;;16.10;10.50;;;;;;;-3.67;75.09;101673.75;8530110;33;20141;-77
2021/12/21 00:21:30;;;;;;;16.73;11.17;;;;;;;-3.76;75.13;101673.72;8516267;33;20508;-77
2021/12/21 00:26:33;;;;;;;21.80;12.33;;;;;;;-3.62;75.24;101668.47;8517983;33;20203;-77
2021/12/21 00:31:38;;;;;;;21.00;11.20;;;;;;;-3.56;74.97;101672.84;8518379;33;20533;-77
2021/12/21 00:36:46;;;;;;;18.17;10.63;;;;;;;-3.59;75.16;101672.84;8512292;33;20463;-77
2021/12/21 00:41:49;;;;;;;18.27;11.47;;;;;;;-3.66;75.11;101679.88;8501102;33;20299;-77
2021/12/21 00:46:52;;;;;;;15.87;11.13;;;;;;;-3.58;75.77;101674.59;8504242;33;20404;-77
2021/12/21 00:51:56;;;;;;;16.23;10.90;;;;;;;-3.63;75.36;101671.97;8526221;33;20553;-77
2021/12/21 00:56:59;;;;;;;18.37;11.77;;;;;;;-3.74;75.01;101665.88;8496168;33;21016;-77
2021/12/21 01:02:02;;;;;;;19.63;10.47;;;;;;;-3.80;75.45;101652.75;8535829;33;20597;-77
2021/12/21 01:07:17;;;;;;;15.00;10.03;;;;;;;-3.75;75.24;101661.50;8550867;33;20459;-77
2021/12/21 01:12:35;;;;;;;16.17;9.97;;;;;;;-4.14;75.63;101663.25;8542773;33;20255;-78
2021/12/21 01:17:49;;;;;;;15.50;10.40;;;;;;;-4.09;75.94;101661.50;8540131;33;20457;-77
2021/12/21 01:23:11;;;;;;;17.77;10.40;;;;;;;-4.05;76.05;101655.41;8544252;33;20428;-77
2021/12/21 01:28:21;;;;;;;19.17;11.00;;;;;;;-4.02;76.31;101655.38;8544774;33;20218;-77
2021/12/21 01:33:39;;;;;;;15.87;10.23;;;;;;;-4.08;76.20;101637.03;8543302;33;20692;-77
2021/12/21 01:38:52;;;;;;;16.60;10.60;;;;;;;-4.18;76.05;101643.16;8550513;33;20533;-77
2021/12/21 01:44:05;;;;;;;17.33;10.83;;;;;;;-4.39;76.29;101638.75;8531062;33;20144;-77
2021/12/21 01:54:30;;;;;;;17.80;10.10;;;;;;;-4.28;76.26;101636.13;8523195;33;20899;-77
2021/12/21 01:59:34;;;;;;;19.50;10.93;;;;;;;-4.23;75.84;101643.13;8523341;33;20500;-77
2021/12/21 02:04:38;;;;;;;16.87;10.33;;;;;;;-4.22;75.62;101642.28;8525521;33;20575;-76
2021/12/21 02:09:42;;;;;;;18.67;11.17;;;;;;;-4.23;75.64;101643.13;8521919;33;20663;-76
2021/12/21 02:14:54;;;;;;;16.97;10.60;;;;;;;-4.27;75.18;101640.53;8522468;33;20468;-76
2021/12/21 02:20:09;;;;;;;18.43;11.53;;;;;;;-4.33;75.08;101639.66;8523522;33;20561;-76
2021/12/21 02:25:35;;;;;;;17.97;10.53;;;;;;;-4.38;74.84;101633.53;8521595;33;20202;-76
2021/12/21 02:30:42;;;;;;;18.03;10.70;;;;;;;-4.38;74.75;101624.78;8521876;33;20538;-76
2021/12/21 02:35:47;;;;;;;19.40;10.93;;;;;;;-4.41;74.61;101620.41;8523207;33;20541;-76
2021/12/21 02:40:51;;;;;;;21.00;12.00;;;;;;;-4.50;74.11;101620.38;8521950;33;20474;-76
2021/12/21 02:45:54;;;;;;;19.17;11.70;;;;;;;-4.54;74.38;101616.88;8523072;33;20540;-76
2021/12/21 02:50:58;;;;;;;24.13;13.57;;;;;;;-4.62;74.55;101626.50;8523589;33;20146;-78
2021/12/21 02:56:02;;;;;;;19.23;12.13;;;;;;;-4.57;74.91;101619.50;8523649;33;20432;-78
2021/12/21 03:01:07;;;;;;;19.57;11.67;;;;;;;-4.56;74.69;101628.25;8522428;33;20145;-78
2021/12/21 03:06:27;;;;;;;19.97;10.97;;;;;;;-4.55;74.89;101616.91;8500239;33;20247;-78
2021/12/21 03:11:47;;;;;;;18.73;10.60;;;;;;;-4.53;74.72;101620.38;8523557;33;20149;-76
2021/12/21 03:16:52;;;;;;;17.13;10.33;;;;;;;-4.47;74.69;101614.25;8535300;33;20441;-79
2021/12/21 03:21:57;;;;;;;17.33;10.20;;;;;;;-4.49;74.80;101606.41;8543836;33;20247;-76
2021/12/21 03:27:00;;;;;;;17.13;11.30;;;;;;;-4.35;75.13;101611.66;8535460;33;20183;-77
2021/12/21 03:32:04;;;;;;;17.87;10.43;;;;;;;-4.34;75.05;101605.53;8538640;33;20280;-76
2021/12/21 03:37:12;;;;;;;13.83;9.40;;;;;;;-4.36;74.79;101615.13;8529027;33;20634;-76
2021/12/21 03:42:15;;;;;;;21.43;10.70;;;;;;;-4.48;74.68;101607.28;8524946;33;20239;-76
2021/12/21 03:47:22;;;;;;;19.47;10.67;;;;;;;-4.61;74.86;101606.38;8524440;33;20517;-76
2021/12/21 03:52:28;;;;;;;19.23;9.63;;;;;;;-4.55;75.17;101609.03;8524615;33;20247;-78
2021/12/21 03:57:32;;;;;;;14.47;9.17;;;;;;;-4.48;75.15;101604.66;8529943;33;20528;-76
2021/12/21 04:02:35;;;;;;;16.70;9.57;;;;;;;-4.46;74.81;101595.06;8530431;33;20286;-77
2021/12/21 04:07:41;;;;;;;16.20;10.50;;;;;;;-4.53;74.41;101592.41;8524121;33;20152;-77
2021/12/21 04:12:44;;;;;;;17.90;9.90;;;;;;;-4.49;74.50;101595.06;8544174;33;20240;-77
2021/12/21 04:17:47;;;;;;;14.87;10.47;;;;;;;-4.61;74.05;101599.38;8539209;33;20246;-77
2021/12/21 04:22:51;;;;;;;17.50;9.63;;;;;;;-4.64;74.17;101585.41;8529156;33;20657;-77
2021/12/21 04:27:54;;;;;;;15.53;10.00;;;;;;;-4.73;73.98;101586.28;8542426;33;20982;-76
2021/12/21 04:32:58;;;;;;;16.97;9.60;;;;;;;-4.79;73.75;101591.53;8524756;33;20428;-77
2021/12/21 04:38:19;;;;;;;14.07;9.33;;;;;;;-4.68;74.25;101583.66;8523005;33;20160;-77
2021/12/21 04:43:22;;;;;;;17.30;9.50;;;;;;;-4.58;74.03;101590.66;8522098;33;20724;-76
2021/12/21 04:48:25;;;;;;;15.83;9.63;;;;;;;-4.68;73.51;101584.53;8521816;33;20571;-76
2021/12/21 04:53:32;;;;;;;15.37;9.40;;;;;;;-4.83;73.49;101580.13;8520608;33;20628;-76
2021/12/21 04:58:36;;;;;;;17.80;9.67;;;;;;;-4.95;73.54;101574.00;8520510;33;20431;-76
2021/12/21 05:03:39;;;;;;;19.87;10.23;;;;;;;-4.96;73.78;101575.75;8524641;33;20239;-76
2021/12/21 05:09:04;;;;;;;15.57;9.70;;;;;;;-4.97;73.94;101580.09;8528673;33;20240;-76
2021/12/21 05:14:14;;;;;;;20.33;10.10;;;;;;;-4.94;73.68;101578.38;8527780;33;20439;-76
2021/12/21 05:19:17;;;;;;;15.13;9.90;;;;;;;-4.96;73.49;101578.38;8525883;33;20159;-76
2021/12/21 05:24:27;;;;;;;15.73;9.67;;;;;;;-5.02;73.22;101583.59;8527206;33;20160;-75
2021/12/21 05:29:31;;;;;;;18.23;10.43;;;;;;;-5.14;72.90;101571.34;8527831;33;20423;-75
2021/12/21 05:34:36;;;;;;;17.60;10.60;;;;;;;-5.22;72.84;101578.31;8529113;33;20147;-75
2021/12/21 05:39:54;;;;;;;18.17;9.33;;;;;;;-5.23;73.23;101581.81;8527482;33;20168;-75
2021/12/21 05:44:57;;;;;;;17.07;9.57;;;;;;;-5.08;73.67;101583.59;8527666;33;20237;-75
2021/12/21 05:50:00;;;;;;;19.23;10.57;;;;;;;-5.01;73.53;101591.47;8527207;33;20176;-76
2021/12/21 05:55:06;;;;;;;19.07;10.13;;;;;;;-5.02;73.50;101588.81;8505399;33;20140;-76
2021/12/21 06:00:15;;;;;;;20.37;9.50;;;;;;;-4.98;73.76;101593.22;8521919;33;20995;-75
2021/12/21 06:05:18;;;;;;;18.47;10.00;;;;;;;-4.96;73.65;101586.25;8523971;33;20464;-75
2021/12/21 06:10:28;;;;;;;17.63;10.47;;;;;;;-4.92;73.86;101587.13;8521077;33;20493;-75
2021/12/21 06:15:43;;;;;;;20.40;11.33;;;;;;;-4.87;74.05;101594.13;8498178;33;20410;-76
2021/12/21 06:26:12;;;;;;;16.63;10.40;;;;;;;-4.86;74.22;101595.84;8523195;33;20173;-75
2021/12/21 06:31:15;;;;;;;18.87;10.00;;;;;;;-4.88;74.54;101594.09;8519085;33;20182;-75
2021/12/21 06:36:19;;;;;;;20.13;11.37;;;;;;;-4.97;73.81;101600.19;8515770;33;21083;-75
2021/12/21 06:41:26;;;;;;;22.77;12.37;;;;;;;-4.98;74.12;101598.47;8518025;33;20489;-75
2021/12/21 06:46:46;;;;;;;19.80;12.10;;;;;;;-5.04;74.11;101594.09;8529672;33;20145;-75
2021/12/21 06:51:51;;;;;;;17.30;10.60;;;;;;;-5.04;73.77;101593.22;8517435;33;20424;-75
2021/12/21 06:56:57;;;;;;;18.27;10.70;;;;;;;-5.30;74.07;101595.72;8527088;33;20509;-75
2021/12/21 07:02:04;;;;;;;19.93;11.93;;;;;;;-5.44;74.68;101606.16;8521626;33;20290;-75
2021/12/21 07:07:09;;;;;;;19.53;9.83;;;;;;;-5.50;74.91;101614.00;8524314;33;20168;-75
2021/12/21 07:12:33;;;;;;;19.87;10.53;;;;;;;-5.49;75.16;101607.88;8523476;33;20432;-76
2021/12/21 07:22:57;;;;;;;19.57;10.27;;;;;;;-5.43;75.00;101602.66;8512221;33;20152;-75
2021/12/21 07:28:05;;;;;;;19.80;11.03;;;;;;;-5.35;74.78;101608.81;8525256;33;20184;-75
2021/12/21 07:33:09;;;;;;;21.70;13.97;;;;;;;-5.37;74.82;101618.44;8520593;33;20420;-76
2021/12/21 07:38:15;;;;;;;32.77;14.77;;;;;;;-5.30;74.93;101620.19;8521664;33;20168;-75
2021/12/21 07:43:25;;;;;;;24.77;11.77;;;;;;;-5.33;74.88;101619.31;8520331;33;20125;-75
2021/12/21 07:48:30;;;;;;;47.80;18.57;;;;;;;-5.26;76.44;101626.34;8523043;33;20235;-75
2021/12/21 07:53:36;;;;;;;70.53;27.70;;;;;;;-4.73;76.16;101622.13;8525907;33;20430;-75
2021/12/21 07:58:43;;;;;;;21.87;12.97;;;;;;;-4.41;74.94;101636.16;8528485;33;20528;-76
2021/12/21 08:03:52;;;;;;;17.23;10.60;;;;;;;-4.23;74.16;101621.28;8529115;33;20942;-76
2021/12/21 08:08:56;;;;;;;18.87;12.23;;;;;;;-3.94;73.39;101631.78;8530621;33;20461;-76
2021/12/21 08:14:01;;;;;;;23.80;12.60;;;;;;;-3.78;72.96;101638.75;8527643;33;21200;-75
2021/12/21 08:19:07;;;;;;;18.57;12.70;;;;;;;-3.86;72.96;101638.75;8526077;33;20315;-75
2021/12/21 08:24:10;;;;;;;20.90;12.20;;;;;;;-3.79;73.45;101633.47;8523395;33;20952;-75
2021/12/21 08:29:15;;;;;;;20.50;12.03;;;;;;;-3.77;73.24;101634.38;8498994;33;20480;-75
2021/12/21 08:34:18;;;;;;;20.53;11.73;;;;;;;-3.62;73.51;101631.69;8523996;33;20140;-76
2021/12/21 08:39:24;;;;;;;25.47;12.50;;;;;;;-3.50;73.15;101633.44;8524441;33;20487;-76
2021/12/21 08:44:30;;;;;;;19.33;12.20;;;;;;;-3.55;73.03;101627.31;8504957;33;20421;-76
2021/12/21 08:49:33;;;;;;;25.20;14.37;;;;;;;-3.68;73.61;101615.94;8502564;33;20180;-76
2021/12/21 08:54:36;;;;;;;27.27;14.73;;;;;;;-3.71;74.45;101627.34;8525488;33;20593;-76
2021/12/21 08:59:47;;;;;;;45.77;17.60;;;;;;;-3.58;74.77;101633.44;8521484;33;20529;-76
2021/12/21 09:04:50;;;;;;;41.97;15.87;;;;;;;-3.51;76.23;101634.28;8521976;33;20444;-76
2021/12/21 09:09:53;;;;;;;29.60;15.10;;;;;;;-3.37;77.00;101623.72;8504962;33;20433;-76
2021/12/21 09:14:58;;;;;;;45.67;18.07;;;;;;;-3.20;77.23;101630.69;8526252;33;20600;-76
2021/12/21 09:20:01;;;;;;;32.07;16.73;;;;;;;-3.12;76.89;101643.81;8602254;28;20132;-78
2021/12/21 09:25:21;;;;;;;71.87;24.33;;;;;;;-3.08;76.78;101634.13;8631236;33;20466;-78
2021/12/21 09:30:29;;;;;;;49.13;18.20;;;;;;;-3.12;77.06;101643.81;8607649;33;20417;-78
2021/12/21 09:35:32;;;;;;;58.07;21.73;;;;;;;-2.94;77.15;101641.97;8609350;33;20648;-77
2021/12/21 09:40:39;;;;;;;44.10;19.33;;;;;;;-2.84;76.96;101657.69;8605985;33;20144;-78
2021/12/21 09:45:43;;;;;;;46.83;19.97;;;;;;;-2.72;76.74;101659.38;8606368;33;20140;-77
2021/12/21 09:50:49;;;;;;;57.23;21.10;;;;;;;-2.64;76.37;101660.19;8612101;33;20478;-78
2021/12/21 09:55:56;;;;;;;79.63;22.10;;;;;;;-2.57;75.96;101658.41;8609587;33;20519;-78
2021/12/21 10:01:01;;;;;;;65.00;21.97;;;;;;;-2.65;76.26;101650.56;8613897;33;20457;-77
2021/12/21 10:06:11;;;;;;;44.63;19.63;;;;;;;-2.53;76.02;101653.09;8623793;33;20231;-78
2021/12/21 10:11:20;;;;;;;32.33;16.47;;;;;;;-2.55;75.95;101654.00;8626499;33;20132;-78
2021/12/21 10:16:33;;;;;;;43.63;18.20;;;;;;;-2.55;76.16;101648.72;8626277;33;20430;-79
2021/12/21 10:21:47;;;;;;;65.00;21.07;;;;;;;-2.63;76.13;101638.28;8625082;33;20445;-78
2021/12/21 10:26:53;;;;;;;72.60;22.77;;;;;;;-2.40;76.78;101638.09;8620537;33;20146;-79
2021/12/21 10:31:58;;;;;;;82.37;24.57;;;;;;;-2.64;75.97;101626.00;8610638;33;20427;-79
2021/12/21 10:37:03;;;;;;;144.70;31.27;;;;;;;-2.63;77.12;101614.59;8608838;33;20134;-78
2021/12/21 10:42:08;;;;;;;87.33;25.70;;;;;;;-2.29;77.22;101603.81;8606085;33;20419;-79
2021/12/21 10:47:16;;;;;;;145.23;31.17;;;;;;;-2.14;76.33;101595.78;8605918;33;20416;-79
2021/12/21 10:52:24;;;;;;;70.80;23.37;;;;;;;-2.16;76.39;101594.06;8599283;33;20124;-78
2021/12/21 10:57:32;;;;;;;59.37;24.03;;;;;;;-1.97;76.22;101605.28;8597090;33;20429;-79
2021/12/21 11:02:36;;;;;;;62.47;23.17;;;;;;;-2.03;76.27;101598.31;8596422;33;20120;-78
2021/12/21 11:07:46;;;;;;;155.97;33.67;;;;;;;-2.01;76.13;101593.91;8600356;33;20182;-79
2021/12/21 11:12:54;;;;;;;86.80;27.90;;;;;;;-1.95;76.15;101585.06;8603861;33;20148;-79
2021/12/21 11:18:05;;;;;;;72.10;24.83;;;;;;;-1.88;75.56;101581.50;8628237;33;20208;-79
2021/12/21 11:23:08;;;;;;;107.97;28.63;;;;;;;-2.08;75.65;101582.56;8619597;33;20608;-78
2021/12/21 11:28:15;;;;;;;72.37;26.03;;;;;;;-1.95;75.95;101580.66;8611549;33;20452;-78
2021/12/21 11:33:25;;;;;;;82.20;28.30;;;;;;;-1.85;76.33;101568.28;8611455;33;20417;-78
2021/12/21 11:38:28;;;;;;;55.73;21.73;;;;;;;-1.72;76.41;101571.66;8604936;33;20136;-78
2021/12/21 11:43:38;;;;;;;48.23;21.73;;;;;;;-1.76;76.10;101562.91;8604547;33;20152;-78
2021/12/21 11:48:54;;;;;;;108.93;28.63;;;;;;;-1.90;75.31;101567.47;8574865;33;20164;-78
2021/12/21 11:53:57;;;;;;;139.37;35.17;;;;;;;-2.00;76.58;101569.31;8595863;33;20456;-78
2021/12/21 11:59:03;;;;;;;48.47;21.63;;;;;;;-1.84;76.28;101570.00;8594494;33;20419;-78
2021/12/21 12:04:16;;;;;;;112.77;32.40;;;;;;;-1.71;76.75;101554.97;8594835;33;20152;-78
2021/12/21 12:09:29;;;;;;;65.10;26.47;;;;;;;-1.55;76.43;101561.78;8594366;33;20139;-78
2021/12/21 12:14:33;;;;;;;120.37;32.33;;;;;;;-1.54;76.20;101558.25;8596042;33;20147;-78
2021/12/21 12:19:43;;;;;;;93.07;26.17;;;;;;;-1.56;75.74;101552.16;8595913;33;20140;-78
2021/12/21 12:24:56;;;;;;;67.27;25.73;;;;;;;-1.88;75.32;101548.13;8570728;33;20865;-78
2021/12/21 12:30:02;;;;;;;84.33;27.57;;;;;;;-1.92;76.25;101551.69;8597073;33;21095;-78
2021/12/21 12:35:14;;;;;;;81.57;26.60;;;;;;;-1.91;76.38;101547.28;8600072;33;20388;-78
2021/12/21 12:40:20;;;;;;;176.53;42.67;;;;;;;-1.92;76.42;101537.63;8602545;33;20185;-78
2021/12/21 12:45:26;;;;;;;99.20;29.23;;;;;;;-1.99;76.12;101533.31;8609781;33;20178;-77
2021/12/21 12:50:40;;;;;;;63.93;26.33;;;;;;;-2.00;76.47;101534.19;8608762;33;20155;-78
2021/12/21 12:55:49;;;;;;;74.70;26.23;;;;;;;-1.99;76.64;101534.19;8615027;33;20148;-79
2021/12/21 13:01:20;;;;;;;49.83;22.93;;;;;;;-2.04;77.11;101535.13;8622658;33;20443;-79
2021/12/21 13:06:27;;;;;;;77.53;27.03;;;;;;;-2.07;77.24;101530.75;8638199;33;20159;-79
2021/12/21 13:11:33;;;;;;;187.93;41.73;;;;;;;-2.17;77.22;101527.34;8636920;33;20407;-79
2021/12/21 13:16:38;;;;;;;63.87;27.83;;;;;;;-2.17;77.86;101526.47;8630013;33;20163;-79
2021/12/21 13:21:53;;;;;;;74.90;30.60;;;;;;;-2.07;77.79;101529.00;8624474;33;20202;-78
2021/12/21 13:27:03;;;;;;;161.63;35.63;;;;;;;-2.09;77.76;101517.59;8596484;33;20414;-79
2021/12/21 13:32:09;;;;;;;71.23;25.63;;;;;;;-2.15;77.88;101514.16;8619073;33;20438;-78
2021/12/21 13:37:18;;;;;;;47.10;25.47;;;;;;;-2.41;78.20;101514.41;8620460;33;20413;-79
2021/12/21 13:42:27;;;;;;;103.10;30.20;;;;;;;-2.17;78.75;101519.44;8619636;33;20408;-79
2021/12/21 13:47:34;;;;;;;61.23;27.97;;;;;;;-2.02;78.91;101520.19;8622934;33;20435;-79
2021/12/21 13:52:43;;;;;;;75.73;28.77;;;;;;;-1.96;78.72;101530.66;8590084;33;20157;-79
2021/12/21 13:57:49;;;;;;;93.50;30.67;;;;;;;-2.14;78.62;101518.53;8619513;33;20178;-79
2021/12/21 14:03:02;;;;;;;62.77;25.00;;;;;;;-2.27;79.08;101527.47;8619701;33;20128;-78
2021/12/21 14:08:07;;;;;;;84.97;26.50;;;;;;;-2.36;79.28;101545.09;8608035;33;20416;-78
2021/12/21 14:13:10;;;;;;;50.27;24.83;;;;;;;-2.33;79.47;101534.53;8614412;33;20147;-78
2021/12/21 14:18:22;;;;;;;55.30;25.07;;;;;;;-2.27;79.58;101533.59;8611043;33;21076;-79
2021/12/21 14:23:30;;;;;;;129.90;34.67;;;;;;;-2.46;79.48;101539.94;8612904;33;20170;-78
2021/12/21 14:28:33;;;;;;;101.30;30.90;;;;;;;-2.37;79.99;101540.69;8614067;33;20231;-79
2021/12/21 14:33:48;;;;;;;59.73;26.63;;;;;;;-2.44;80.01;101546.91;8606273;33;20140;-78
2021/12/21 14:38:58;;;;;;;77.67;27.90;;;;;;;-2.40;80.35;101555.66;8643441;33;20128;-79
2021/12/21 14:44:08;;;;;;;76.97;27.30;;;;;;;-2.46;79.89;101553.09;8615859;33;20180;-79
2021/12/21 14:49:12;;;;;;;44.33;24.13;;;;;;;-2.51;80.27;101543.44;8610112;33;20404;-78
2021/12/21 14:54:24;;;;;;;77.63;27.70;;;;;;;-2.73;79.73;101553.28;8603620;33;20512;-79
2021/12/21 14:59:33;;;;;;;85.13;27.40;;;;;;;-2.89;80.28;101550.78;8601502;33;20432;-77
2021/12/21 15:04:42;;;;;;;75.00;27.40;;;;;;;-2.93;81.01;101547.28;8605152;33;20132;-80
2021/12/21 15:09:46;;;;;;;53.87;25.40;;;;;;;-2.71;81.54;101555.00;8607982;33;20162;-79
2021/12/21 15:14:57;;;;;;;59.27;25.13;;;;;;;-2.77;80.79;101561.19;8603925;33;20409;-77
2021/12/21 15:20:05;;;;;;;66.03;27.20;;;;;;;-2.72;81.28;101556.78;8602927;33;20174;-77
2021/12/21 15:25:13;;;;;;;64.37;25.93;;;;;;;-2.87;80.96;101556.91;8610516;33;20144;-80
2021/12/21 15:30:19;;;;;;;73.43;26.23;;;;;;;-2.83;81.30;101559.47;8606652;33;20151;-80
2021/12/21 15:35:26;;;;;;;66.37;25.90;;;;;;;-2.79;81.45;101555.09;8616300;33;20483;-80
2021/12/21 15:40:34;;;;;;;79.87;26.97;;;;;;;-2.84;81.31;101562.13;8618858;33;20129;-80
2021/12/21 15:45:37;;;;;;;46.30;23.60;;;;;;;-2.92;81.30;101561.31;8624397;33;20157;-78
2021/12/21 15:50:40;;;;;;;65.67;25.60;;;;;;;-2.93;81.50;101556.91;8621843;33;20484;-80
2021/12/21 15:55:45;;;;;;;85.50;29.20;;;;;;;-3.06;81.29;101559.63;8633958;33;20446;-78
2021/12/21 16:00:48;;;;;;;80.30;27.40;;;;;;;-3.10;81.64;101557.03;8619859;33;20422;-78
2021/12/21 16:05:54;;;;;;;42.93;21.53;;;;;;;-2.98;82.01;101560.47;8617168;33;20144;-78
2021/12/21 16:10:58;;;;;;;79.67;27.43;;;;;;;-2.92;81.51;101566.56;8613103;33;20140;-79
2021/12/21 16:16:02;;;;;;;71.97;25.07;;;;;;;-2.93;81.48;101565.69;8613513;33;20934;-79
2021/12/21 16:21:06;;;;;;;68.37;25.53;;;;;;;-2.93;81.60;101562.19;8613700;33;20152;-80
2021/12/21 16:26:32;;;;;;;74.17;25.97;;;;;;;-3.03;81.58;101564.88;8622589;33;20415;-79
2021/12/21 16:31:35;;;;;;;71.43;24.37;;;;;;;-3.03;81.29;101571.88;8637177;33;20178;-78
2021/12/21 16:36:38;;;;;;;83.90;26.93;;;;;;;-3.12;81.71;101570.19;8624725;33;20155;-78
2021/12/21 16:41:44;;;;;;;74.90;24.87;;;;;;;-3.08;81.57;101579.78;8619107;33;20420;-80
2021/12/21 16:46:48;;;;;;;135.77;35.27;;;;;;;-3.07;82.00;101581.56;8619571;33;20136;-79
2021/12/21 16:51:51;;;;;;;52.63;21.93;;;;;;;-2.99;82.21;101576.22;8623211;33;20455;-80
2021/12/21 16:56:56;;;;;;;117.83;33.40;;;;;;;-2.90;81.85;101568.31;8623054;33;20404;-79
2021/12/21 17:02:00;;;;;;;71.17;28.97;;;;;;;-2.85;81.85;101576.16;8622977;33;20152;-78
2021/12/21 17:07:03;;;;;;;74.23;29.17;;;;;;;-2.89;82.09;101577.94;8621603;33;20151;-78
2021/12/21 17:12:08;;;;;;;86.27;27.83;;;;;;;-2.89;81.60;101566.53;8621116;33;20429;-79
2021/12/21 17:17:11;;;;;;;83.90;25.87;;;;;;;-3.13;81.25;101573.69;8622302;33;20436;-78
2021/12/21 17:22:15;;;;;;;62.07;21.63;;;;;;;-3.28;81.74;101566.75;8618379;33;20163;-79
2021/12/21 17:27:20;;;;;;;52.63;21.07;;;;;;;-3.45;81.51;101561.59;8622088;33;20750;-78
2021/12/21 17:32:23;;;;;;;91.13;24.50;;;;;;;-3.72;81.68;101570.44;8635446;33;20429;-78
2021/12/21 17:37:32;;;;;;;69.20;23.23;;;;;;;-3.41;82.30;101570.31;8636538;33;20135;-79
2021/12/21 17:42:38;;;;;;;87.33;25.77;;;;;;;-3.34;81.93;101561.53;8640053;33;20483;-78
2021/12/21 17:47:42;;;;;;;44.87;21.97;;;;;;;-3.34;81.72;101558.06;8642215;33;20414;-79
2021/12/21 17:52:45;;;;;;;113.93;31.23;;;;;;;-3.20;82.18;101561.47;8655872;33;20485;-79
2021/12/21 17:57:52;;;;;;;50.23;22.00;;;;;;;-3.18;82.13;101572.88;8627969;33;20450;-79
2021/12/21 18:02:56;;;;;;;76.43;29.37;;;;;;;-3.11;81.91;101569.28;8619964;33;20403;-79
2021/12/21 18:08:00;;;;;;;81.87;26.90;;;;;;;-3.05;82.08;101565.75;8611866;33;21069;-80
2021/12/21 18:13:07;;;;;;;61.73;28.00;;;;;;;-2.92;82.24;101561.31;8633910;33;20148;-79
2021/12/21 18:18:10;;;;;;;71.47;25.07;;;;;;;-3.03;81.93;101578.03;8615802;33;20237;-80
2021/12/21 18:23:19;;;;;;;79.47;26.50;;;;;;;-3.06;81.68;101575.41;8610868;33;20494;-80
2021/12/21 18:28:24;;;;;;;88.73;27.10;;;;;;;-3.10;81.75;101564.91;8612111;33;20448;-79
2021/12/21 18:33:31;;;;;;;56.70;21.13;;;;;;;-3.16;81.62;101580.72;8610196;33;20401;-79
2021/12/21 18:38:39;;;;;;;86.87;25.90;;;;;;;-3.11;81.78;101581.56;8607423;33;20214;-80
2021/12/21 18:43:43;;;;;;;62.20;22.43;;;;;;;-3.18;81.77;101584.25;8614623;33;20168;-80
2021/12/21 18:48:49;;;;;;;70.63;23.10;;;;;;;-3.22;81.86;101571.97;8600871;33;20283;-80
2021/12/21 18:53:54;;;;;;;72.00;22.90;;;;;;;-3.38;81.44;101574.69;8599461;33;20548;-80
2021/12/21 18:59:06;;;;;;;86.00;22.60;;;;;;;-3.32;81.94;101579.91;8600606;33;20442;-78
2021/12/21 19:04:12;;;;;;;59.13;20.67;;;;;;;-3.33;81.80;101581.69;8595260;33;20510;-79
2021/12/21 19:09:16;;;;;;;43.87;19.90;;;;;;;-3.41;81.60;101586.97;8601313;33;20433;-78
2021/12/21 19:14:20;;;;;;;42.77;17.97;;;;;;;-3.47;81.01;101594.88;8601710;33;20164;-79
2021/12/21 19:19:23;;;;;;;44.70;17.67;;;;;;;-3.57;81.11;101587.91;8600503;33;21001;-78
2021/12/21 19:24:32;;;;;;;57.03;19.43;;;;;;;-3.71;80.87;101593.19;8603635;33;20456;-80
2021/12/21 19:29:39;;;;;;;67.07;21.00;;;;;;;-3.57;81.58;101592.28;8613486;33;20417;-80
2021/12/21 19:34:44;;;;;;;49.33;19.60;;;;;;;-3.64;81.36;101591.44;8613074;33;20155;-78
2021/12/21 19:39:48;;;;;;;59.03;19.07;;;;;;;-3.61;81.29;101588.78;8600975;33;20159;-80
2021/12/21 19:44:54;;;;;;;63.80;20.67;;;;;;;-3.52;81.47;101591.38;8598648;33;20423;-80
2021/12/21 19:49:57;;;;;;;58.43;19.53;;;;;;;-3.66;80.71;101574.81;8593838;33;20309;-79
2021/12/21 19:55:00;;;;;;;77.90;28.73;;;;;;;-3.70;80.85;101584.44;8592881;33;20154;-80
2021/12/21 20:00:09;;;;;;;102.70;36.50;;;;;;;-3.72;80.83;101594.06;8592895;33;20414;-81
2021/12/21 20:05:14;;;;;;;59.53;19.63;;;;;;;-3.83;80.68;101595.84;8594952;33;20436;-80
2021/12/21 20:10:25;;;;;;;60.73;19.77;;;;;;;-3.91;80.75;101602.88;8621026;33;20453;-78
2021/12/21 20:15:30;;;;;;;58.07;20.80;;;;;;;-3.91;81.05;101605.50;8602741;33;20448;-80
2021/12/21 20:20:36;;;;;;;49.93;19.87;;;;;;;-3.79;81.05;101597.59;8605195;33;20567;-80
2021/12/21 20:25:42;;;;;;;38.47;18.33;;;;;;;-3.89;80.96;101606.38;8598081;33;20258;-79
2021/12/21 20:30:46;;;;;;;33.83;16.70;;;;;;;-3.94;80.75;101602.88;8617637;33;20128;-79
2021/12/21 20:35:50;;;;;;;61.63;20.53;;;;;;;-4.15;80.07;101609.03;8641492;33;20441;-79
2021/12/21 20:40:57;;;;;;;61.07;18.60;;;;;;;-4.36;80.36;101604.66;8610104;33;20144;-79
2021/12/21 20:46:01;;;;;;;96.30;27.80;;;;;;;-4.15;80.92;101607.28;8614126;33;20148;-79
2021/12/21 20:51:05;;;;;;;58.60;21.20;;;;;;;-4.09;80.86;101604.66;8603748;33;20887;-78
2021/12/21 20:56:08;;;;;;;41.37;18.83;;;;;;;-4.21;80.85;101603.78;8599640;33;20433;-78
2021/12/21 21:01:13;;;;;;;69.90;23.27;;;;;;;-4.25;80.42;101594.16;8600682;33;20424;-79
2021/12/21 21:06:19;;;;;;;56.10;20.27;;;;;;;-4.14;80.33;101590.66;8600348;33;20156;-79
2021/12/21 21:11:25;;;;;;;72.90;23.47;;;;;;;-4.13;80.01;101594.16;8600406;33;20447;-80
2021/12/21 21:16:30;;;;;;;67.43;21.50;;;;;;;-4.23;79.90;101588.03;8624003;33;20410;-80
2021/12/21 21:21:38;;;;;;;89.70;28.53;;;;;;;-4.25;79.89;101583.66;8614848;33;20421;-79
2021/12/21 21:26:42;;;;;;;93.07;28.40;;;;;;;-4.33;79.61;101591.56;8621361;33;20443;-79
2021/12/21 21:31:49;;;;;;;106.20;28.60;;;;;;;-4.31;79.97;101584.53;8623069;33;20833;-80
2021/12/21 21:36:55;;;;;;;62.17;27.73;;;;;;;-4.18;79.90;101588.03;8638331;33;20460;-78
2021/12/21 21:42:00;;;;;;;61.37;27.17;;;;;;;-4.08;79.79;101587.16;8611442;33;20148;-77
2021/12/21 21:47:06;;;;;;;69.87;29.47;;;;;;;-4.02;79.80;101581.88;8624415;33;20473;-79
2021/12/21 21:52:12;;;;;;;61.10;25.10;;;;;;;-4.19;78.99;101594.16;8628847;33;20154;-79
2021/12/21 21:57:15;;;;;;;78.67;28.20;;;;;;;-4.26;78.90;101595.03;8615483;33;20155;-79
2021/12/21 22:02:20;;;;;;;44.00;21.17;;;;;;;-4.21;78.85;101593.28;8614692;33;20583;-79
2021/12/21 22:07:25;;;;;;;51.40;23.50;;;;;;;-4.33;78.80;101595.06;8614814;33;20175;-79
2021/12/21 22:12:28;;;;;;;51.13;21.43;;;;;;;-4.15;78.93;101593.28;8604424;33;20140;-79
2021/12/21 22:17:32;;;;;;;47.30;20.57;;;;;;;-4.08;78.49;101590.66;8608517;33;20144;-79
2021/12/21 22:22:36;;;;;;;53.43;22.77;;;;;;;-4.06;78.49;101585.38;8615698;33;20421;-79
2021/12/21 22:27:43;;;;;;;47.80;22.57;;;;;;;-4.11;78.30;101592.41;8605394;33;20425;-79
2021/12/21 22:32:51;;;;;;;52.33;23.57;;;;;;;-4.02;78.35;101588.91;8603885;33;20207;-79
2021/12/21 22:37:54;;;;;;;46.27;20.47;;;;;;;-4.10;77.85;101589.78;8605229;33;20174;-79
2021/12/21 22:42:57;;;;;;;44.20;21.23;;;;;;;-4.14;77.76;101597.63;8628150;33;20159;-79
2021/12/21 22:48:01;;;;;;;56.37;22.93;;;;;;;-4.11;78.02;101605.53;8627453;33;20156;-79
2021/12/21 22:53:08;;;;;;;47.57;19.50;;;;;;;-4.26;77.69;101606.41;8618051;33;20152;-79
2021/12/21 22:58:14;;;;;;;50.90;19.97;;;;;;;-4.36;77.83;101604.66;8618394;33;20187;-78
2021/12/21 23:03:18;;;;;;;42.63;18.77;;;;;;;-4.34;78.37;101606.41;8613161;33;20230;-79
2021/12/21 23:08:22;;;;;;;42.77;18.50;;;;;;;-4.26;78.38;101608.16;8605206;33;20410;-79
2021/12/21 23:13:27;;;;;;;52.67;18.67;;;;;;;-4.19;78.47;101610.78;8599756;33;20136;-79
2021/12/21 23:18:34;;;;;;;46.30;19.20;;;;;;;-4.17;78.35;101618.63;8591246;33;20477;-77
2021/12/21 23:23:40;;;;;;;52.23;18.57;;;;;;;-4.26;78.13;101602.91;8591985;33;20196;-79
2021/12/21 23:28:43;;;;;;;44.47;17.20;;;;;;;-4.27;78.39;101607.28;8593711;33;21001;-77